Time;durP1;ratioP1;P1;durP2;ratioP2;P2;SDS_P1;SDS_P2;PMS_P1;PMS_P2;Temp;Humidity;BMP_temperature;BMP_pressure;BME280_temperature;BME280_humidity;BME280_pressure;Samples;Min_cycle;Max_cycle;Signal;HPM_P1;HPM_P2
2022/10/02 00:00:34;;;;;;;4.18;1.83;;;;;;;;;;6243725;28;20042;-72
2022/10/02 00:03:37;;;;;;;2.35;1.65;;;;;;;;;;6243742;28;20229;-72
2022/10/02 00:06:43;;;;;;;5.05;1.67;;;;;;;;;;6246814;28;20144;-72
2022/10/02 00:09:48;;;;;;;3.40;1.52;;;;;;;;;;6248996;28;20068;-72
2022/10/02 00:12:55;;;;;;;5.43;2.05;;;;;;;;;;6244618;28;20054;-72
2022/10/02 00:15:57;;;;;;;6.18;1.70;;;;;;;;;;6243299;28;20049;-72
2022/10/02 00:18:59;;;;;;;5.75;1.88;;;;;;;;;;6245539;28;20054;-72
2022/10/02 00:22:34;;;;;;;5.20;1.90;;;;;;;;;;6243792;28;20057;-72
2022/10/02 00:25:41;;;;;;;3.22;1.65;;;;;;;;;;6243758;28;20301;-72
2022/10/02 00:28:48;;;;;;;1.90;1.20;;;;;;;;;;6241505;28;20076;-72
2022/10/02 00:31:54;;;;;;;5.53;1.52;;;;;;;;;;6243567;28;20118;-72
2022/10/02 00:35:16;;;;;;;4.30;1.52;;;;;;;;;;6242540;28;20119;-71
2022/10/02 00:38:27;;;;;;;3.22;1.67;;;;;;;;;;6242707;28;20214;-72
2022/10/02 00:42:04;;;;;;;5.88;1.60;;;;;;;;;;6243402;28;20092;-72
2022/10/02 00:45:33;;;;;;;3.60;1.63;;;;;;;;;;6240601;28;20124;-72
2022/10/02 00:48:49;;;;;;;2.97;1.75;;;;;;;;;;6243319;28;20069;-72
2022/10/02 00:52:01;;;;;;;3.30;1.58;;;;;;;;;;6245036;28;20550;-72
2022/10/02 00:55:28;;;;;;;6.30;1.85;;;;;;;;;;6240267;28;20077;-74
2022/10/02 00:58:51;;;;;;;3.25;1.98;;;;;;;;;;6243848;28;20205;-72
2022/10/02 01:01:56;;;;;;;3.15;1.50;;;;;;;;;;6243299;28;20057;-74
2022/10/02 01:04:58;;;;;;;4.80;1.33;;;;;;;;;;6244035;28;20049;-74
2022/10/02 01:08:00;;;;;;;4.30;1.67;;;;;;;;;;6244398;28;20069;-72
2022/10/02 01:11:04;;;;;;;2.50;1.60;;;;;;;;;;6242723;28;20071;-72
2022/10/02 01:14:06;;;;;;;;;;;;;;;;;;6242144;28;20100;-74
2022/10/02 01:17:21;;;;;;;3.92;1.55;;;;;;;;;;6246346;28;20148;-72
2022/10/02 01:20:36;;;;;;;3.08;1.33;;;;;;;;;;6243260;28;20050;-73
2022/10/02 01:23:42;;;;;;;3.80;1.50;;;;;;;;;;6243554;28;20064;-72
2022/10/02 01:26:45;;;;;;;4.30;1.35;;;;;;;;;;6243149;28;20341;-72
2022/10/02 01:30:02;;;;;;;2.20;1.58;;;;;;;;;;6241589;28;20073;-75
2022/10/02 01:33:05;;;;;;;5.57;1.40;;;;;;;;;;6246308;28;20139;-73
2022/10/02 01:36:07;;;;;;;2.25;1.48;;;;;;;;;;6243489;28;20061;-71
2022/10/02 01:39:08;;;;;;;4.03;1.40;;;;;;;;;;6244159;28;20083;-72
2022/10/02 01:42:11;;;;;;;2.65;1.60;;;;;;;;;;6242993;28;20057;-72
2022/10/02 01:45:13;;;;;;;3.63;1.50;;;;;;;;;;6241791;28;20048;-73
2022/10/02 01:48:21;;;;;;;3.35;1.50;;;;;;;;;;6244832;28;20637;-72
2022/10/02 01:51:44;;;;;;;3.70;1.80;;;;;;;;;;6247010;28;20060;-73
2022/10/02 01:54:55;;;;;;;2.75;1.80;;;;;;;;;;6240738;28;20053;-72
2022/10/02 01:58:15;;;;;;;3.67;1.70;;;;;;;;;;6243719;28;20065;-72
2022/10/02 02:01:29;;;;;;;3.80;2.20;;;;;;;;;;6240491;28;20053;-72
2022/10/02 02:04:37;;;;;;;4.82;1.70;;;;;;;;;;6242415;28;20065;-72
2022/10/02 02:07:47;;;;;;;4.10;2.20;;;;;;;;;;6244106;28;20367;-73
2022/10/02 02:10:53;;;;;;;2.78;1.90;;;;;;;;;;6244233;28;20060;-72
2022/10/02 02:14:01;;;;;;;3.80;1.80;;;;;;;;;;6243138;28;20053;-74
2022/10/02 02:17:07;;;;;;;3.33;2.30;;;;;;;;;;6244036;28;20041;-72
2022/10/02 02:20:12;;;;;;;3.50;1.90;;;;;;;;;;6246238;28;20060;-72
2022/10/02 02:23:16;;;;;;;4.00;2.08;;;;;;;;;;6239316;28;20096;-72
2022/10/02 02:26:18;;;;;;;3.30;2.35;;;;;;;;;;6242344;28;20057;-72
2022/10/02 02:29:23;;;;;;;3.35;1.85;;;;;;;;;;6245639;28;20113;-73
2022/10/02 02:32:28;;;;;;;4.53;2.30;;;;;;;;;;6238442;28;20046;-73
2022/10/02 02:35:31;;;;;;;4.68;2.53;;;;;;;;;;6240874;28;20217;-71
2022/10/02 02:38:37;;;;;;;5.65;2.47;;;;;;;;;;6239953;28;20104;-72
2022/10/02 02:41:41;;;;;;;4.13;2.55;;;;;;;;;;6239582;28;20057;-71
2022/10/02 02:44:48;;;;;;;6.05;2.45;;;;;;;;;;6239341;28;20053;-72
2022/10/02 02:47:52;;;;;;;4.03;2.33;;;;;;;;;;6242332;28;20582;-71
2022/10/02 02:50:54;;;;;;;;;;;;;;;;;;6238840;28;20052;-72
2022/10/02 02:53:59;;;;;;;3.35;2.60;;;;;;;;;;6241509;28;19928;-72
2022/10/02 02:57:03;;;;;;;5.68;2.88;;;;;;;;;;6244365;28;20068;-72
2022/10/02 03:00:08;;;;;;;5.00;2.80;;;;;;;;;;6241650;28;20345;-75
2022/10/02 03:03:10;;;;;;;3.83;2.80;;;;;;;;;;6238994;28;20042;-72
2022/10/02 03:06:27;;;;;;;3.28;2.55;;;;;;;;;;6243622;28;20045;-72
2022/10/02 03:09:31;;;;;;;4.57;2.75;;;;;;;;;;6244086;28;20060;-72
2022/10/02 03:12:43;;;;;;;5.43;2.53;;;;;;;;;;6238893;28;20057;-73
2022/10/02 03:15:56;;;;;;;3.55;2.47;;;;;;;;;;6247795;28;20240;-72
2022/10/02 03:19:06;;;;;;;4.07;2.37;;;;;;;;;;6249647;28;20053;-72
2022/10/02 03:22:15;;;;;;;3.63;2.55;;;;;;;;;;6247600;28;20049;-71
2022/10/02 03:25:21;;;;;;;4.47;2.50;;;;;;;;;;6247723;28;20072;-71
2022/10/02 03:28:26;;;;;;;3.00;2.50;;;;;;;;;;6247780;28;20065;-71
2022/10/02 03:31:32;;;;;;;2.63;2.00;;;;;;;;;;6247579;28;20058;-71
2022/10/02 03:34:34;;;;;;;5.57;2.38;;;;;;;;;;6248578;28;20184;-71
2022/10/02 03:37:35;;;;;;;3.28;2.17;;;;;;;;;;6250623;28;20050;-72
2022/10/02 03:40:37;;;;;;;4.20;2.75;;;;;;;;;;6251268;28;20054;-71
2022/10/02 03:43:39;;;;;;;6.88;3.88;;;;;;;;;;6249798;28;20238;-70
2022/10/02 03:46:42;;;;;;;5.68;3.75;;;;;;;;;;6248331;28;20099;-71
2022/10/02 03:49:45;;;;;;;5.87;2.47;;;;;;;;;;6244517;28;20088;-72
2022/10/02 03:52:47;;;;;;;3.38;2.47;;;;;;;;;;6247755;28;20322;-71
2022/10/02 03:55:53;;;;;;;4.57;2.70;;;;;;;;;;6247542;28;20045;-72
2022/10/02 03:58:57;;;;;;;5.10;3.40;;;;;;;;;;6244870;28;20344;-71
2022/10/02 04:02:02;;;;;;;7.05;4.75;;;;;;;;;;6247360;28;20065;-75
2022/10/02 04:05:11;;;;;;;7.75;4.30;;;;;;;;;;6249386;28;20052;-72
2022/10/02 04:08:16;;;;;;;5.07;3.00;;;;;;;;;;6243623;28;20061;-72
2022/10/02 04:11:23;;;;;;;4.93;2.40;;;;;;;;;;6234354;28;20054;-72
2022/10/02 04:14:30;;;;;;;3.85;2.47;;;;;;;;;;6223885;28;20100;-72
2022/10/02 04:17:42;;;;;;;2.65;2.10;;;;;;;;;;6226051;28;20050;-74
2022/10/02 04:20:47;;;;;;;3.70;2.90;;;;;;;;;;6227469;28;20116;-70
2022/10/02 04:23:52;;;;;;;6.03;2.50;;;;;;;;;;6246686;28;20244;-70
2022/10/02 04:27:01;;;;;;;4.47;3.13;;;;;;;;;;6245481;28;20045;-68
2022/10/02 04:30:06;;;;;;;5.45;2.70;;;;;;;;;;6247377;28;20332;-69
2022/10/02 04:33:12;;;;;;;7.30;3.20;;;;;;;;;;6247826;28;20139;-69
2022/10/02 04:36:27;;;;;;;4.03;2.78;;;;;;;;;;6246900;28;20050;-74
2022/10/02 04:39:41;;;;;;;3.88;3.42;;;;;;;;;;6245401;28;20053;-75
2022/10/02 04:42:57;;;;;;;5.53;2.88;;;;;;;;;;6242760;28;20057;-73
2022/10/02 04:46:13;;;;;;;4.40;2.83;;;;;;;;;;6243197;28;20052;-71
2022/10/02 04:49:45;;;;;;;6.13;4.03;;;;;;;;;;6242972;28;20065;-70
2022/10/02 04:52:59;;;;;;;6.50;3.58;;;;;;;;;;6245397;28;20056;-73
2022/10/02 04:56:12;;;;;;;4.13;2.95;;;;;;;;;;6241777;28;20376;-71
2022/10/02 04:59:26;;;;;;;4.22;2.88;;;;;;;;;;6222127;28;20056;-71
2022/10/02 05:02:32;;;;;;;;;;;;;;;;;;6242263;28;20053;-71
2022/10/02 05:05:49;;;;;;;4.47;2.70;;;;;;;;;;6246304;28;19929;-71
2022/10/02 05:09:01;;;;;;;17.65;3.80;;;;;;;;;;6245662;28;20250;-68
2022/10/02 05:12:38;;;;;;;4.75;3.20;;;;;;;;;;6248131;28;20057;-69
2022/10/02 05:16:01;;;;;;;5.88;3.38;;;;;;;;;;6230710;28;20052;-75
2022/10/02 05:19:18;;;;;;;3.97;2.60;;;;;;;;;;6245695;28;20257;-73
2022/10/02 05:22:35;;;;;;;3.83;2.63;;;;;;;;;;6244212;28;20053;-73
2022/10/02 05:25:49;;;;;;;4.70;3.40;;;;;;;;;;6245013;28;20322;-73
2022/10/02 05:29:15;;;;;;;6.50;3.03;;;;;;;;;;6246192;28;20053;-72
2022/10/02 05:32:26;;;;;;;4.28;2.75;;;;;;;;;;6245601;28;20127;-74
2022/10/02 05:35:39;;;;;;;5.80;2.92;;;;;;;;;;6242402;28;20049;-71
2022/10/02 05:38:54;;;;;;;4.25;2.55;;;;;;;;;;6242771;28;20068;-70
2022/10/02 05:42:00;;;;;;;4.07;2.70;;;;;;;;;;6249124;28;20405;-71
2022/10/02 05:45:04;;;;;;;4.05;2.60;;;;;;;;;;6245710;28;20049;-71
2022/10/02 05:48:12;;;;;;;4.70;3.35;;;;;;;;;;6246866;28;20112;-71
2022/10/02 05:51:18;;;;;;;3.78;3.15;;;;;;;;;;6246531;28;20053;-71
2022/10/02 05:54:30;;;;;;;10.00;3.00;;;;;;;;;;6248010;28;20332;-71
2022/10/02 05:57:34;;;;;;;6.28;3.50;;;;;;;;;;6245135;28;20317;-72
2022/10/02 06:00:40;;;;;;;3.75;3.20;;;;;;;;;;6244061;28;20107;-71
2022/10/02 06:03:45;;;;;;;4.85;3.50;;;;;;;;;;6242943;28;20049;-72
2022/10/02 06:06:50;;;;;;;5.82;3.80;;;;;;;;;;6241407;28;20072;-69
2022/10/02 06:09:58;;;;;;;4.75;3.60;;;;;;;;;;6238933;28;20053;-68
2022/10/02 06:13:04;;;;;;;4.45;3.70;;;;;;;;;;6243008;28;20104;-68
2022/10/02 06:16:12;;;;;;;4.97;3.40;;;;;;;;;;6244152;28;20041;-70
2022/10/02 06:19:16;;;;;;;6.10;3.75;;;;;;;;;;6243024;28;20117;-72
2022/10/02 06:22:21;;;;;;;4.63;3.22;;;;;;;;;;6241653;28;20049;-70
2022/10/02 06:25:28;;;;;;;5.13;3.05;;;;;;;;;;6243852;28;20045;-69
2022/10/02 06:28:34;;;;;;;8.10;3.38;;;;;;;;;;6242971;28;20288;-68
2022/10/02 06:31:40;;;;;;;4.55;3.20;;;;;;;;;;6239092;28;20050;-70
2022/10/02 06:34:41;;;;;;;3.85;2.97;;;;;;;;;;6241431;28;20050;-69
2022/10/02 06:37:50;;;;;;;3.90;3.20;;;;;;;;;;6238257;28;20076;-71
2022/10/02 06:40:59;;;;;;;4.47;3.15;;;;;;;;;;6237732;28;20103;-75
2022/10/02 06:44:08;;;;;;;4.53;3.40;;;;;;;;;;6239675;28;20061;-71
2022/10/02 06:47:18;;;;;;;4.15;2.95;;;;;;;;;;6241443;28;20045;-71
2022/10/02 06:50:30;;;;;;;3.97;3.03;;;;;;;;;;6241086;28;20145;-70
2022/10/02 06:53:45;;;;;;;5.80;3.38;;;;;;;;;;6242157;28;20330;-71
2022/10/02 06:57:01;;;;;;;4.10;3.20;;;;;;;;;;6239680;28;20060;-72
2022/10/02 07:00:11;;;;;;;5.22;3.88;;;;;;;;;;6239347;28;20320;-70
2022/10/02 07:03:24;;;;;;;6.63;3.70;;;;;;;;;;6239667;28;20045;-71
2022/10/02 07:06:38;;;;;;;4.57;3.33;;;;;;;;;;6240612;28;20344;-70
2022/10/02 07:10:06;;;;;;;3.10;2.45;;;;;;;;;;6240670;28;20103;-69
2022/10/02 07:13:26;;;;;;;3.03;2.65;;;;;;;;;;6243140;28;20258;-74
2022/10/02 07:16:54;;;;;;;3.65;3.13;;;;;;;;;;6238844;28;20049;-70
2022/10/02 07:20:23;;;;;;;4.35;3.17;;;;;;;;;;6239717;28;20057;-71
2022/10/02 07:23:47;;;;;;;4.25;2.72;;;;;;;;;;6246956;28;20364;-71
2022/10/02 07:26:49;;;;;;;;;;;;;;;;;;6243244;28;20057;-71
2022/10/02 07:29:58;;;;;;;4.45;3.20;;;;;;;;;;6239525;28;20201;-70
2022/10/02 07:33:04;;;;;;;6.97;3.20;;;;;;;;;;6238225;28;20045;-71
2022/10/02 07:36:09;;;;;;;4.85;3.47;;;;;;;;;;6244590;28;20058;-71
2022/10/02 07:39:19;;;;;;;4.60;3.45;;;;;;;;;;6238679;28;20060;-71
2022/10/02 07:42:42;;;;;;;4.68;3.15;;;;;;;;;;6236550;28;20061;-72
2022/10/02 07:45:48;;;;;;;4.53;3.33;;;;;;;;;;6240778;28;20058;-72
2022/10/02 07:48:56;;;;;;;3.70;3.30;;;;;;;;;;6238263;28;20060;-67
2022/10/02 07:52:01;;;;;;;5.50;2.97;;;;;;;;;;6241682;28;20269;-70
2022/10/02 07:55:15;;;;;;;4.50;3.15;;;;;;;;;;6235934;28;20057;-72
2022/10/02 07:58:22;;;;;;;3.85;2.92;;;;;;;;;;6245245;28;20056;-74
2022/10/02 08:01:27;;;;;;;5.95;3.20;;;;;;;;;;6250540;28;20045;-74
2022/10/02 08:04:31;;;;;;;5.70;3.58;;;;;;;;;;6250342;28;20103;-74
2022/10/02 08:07:33;;;;;;;5.28;3.08;;;;;;;;;;6246444;28;20072;-77
2022/10/02 08:10:37;;;;;;;5.47;3.13;;;;;;;;;;6242968;28;20302;-77
2022/10/02 08:13:43;;;;;;;2.80;2.40;;;;;;;;;;6244603;28;20058;-75
2022/10/02 08:16:49;;;;;;;3.70;2.70;;;;;;;;;;6241962;28;20049;-75
2022/10/02 08:19:52;;;;;;;5.40;2.50;;;;;;;;;;6244323;28;20351;-77
2022/10/02 08:22:57;;;;;;;5.95;2.47;;;;;;;;;;6240504;28;20054;-77
2022/10/02 08:26:03;;;;;;;4.18;2.85;;;;;;;;;;6242019;28;20462;-77
2022/10/02 08:29:10;;;;;;;5.22;2.60;;;;;;;;;;6242404;28;20041;-74
2022/10/02 08:32:14;;;;;;;5.63;2.80;;;;;;;;;;6244246;28;20132;-75
2022/10/02 08:35:17;;;;;;;6.43;2.60;;;;;;;;;;6240444;28;20033;-74
2022/10/02 08:38:34;;;;;;;4.35;2.83;;;;;;;;;;6243476;28;20065;-77
2022/10/02 08:42:10;;;;;;;5.18;2.70;;;;;;;;;;6245227;28;20091;-74
2022/10/02 08:45:46;;;;;;;5.63;2.40;;;;;;;;;;6240651;28;20148;-75
2022/10/02 08:49:32;;;;;;;4.13;2.33;;;;;;;;;;6241895;28;20565;-73
2022/10/02 08:53:21;;;;;;;6.93;3.08;;;;;;;;;;6204929;28;20058;-69
2022/10/02 08:56:34;;;;;;;3.67;2.50;;;;;;;;;;6217580;28;20050;-69
2022/10/02 09:00:11;;;;;;;3.13;2.53;;;;;;;;;;6218361;28;20562;-70
2022/10/02 09:03:50;;;;;;;3.97;2.50;;;;;;;;;;6206324;28;20054;-69
2022/10/02 09:07:31;;;;;;;3.85;2.70;;;;;;;;;;6218165;28;20058;-76
2022/10/02 09:10:58;;;;;;;5.60;2.85;;;;;;;;;;6215672;28;20089;-72
2022/10/02 09:14:25;;;;;;;3.47;2.38;;;;;;;;;;6216571;28;20333;-74
2022/10/02 09:17:42;;;;;;;8.02;3.22;;;;;;;;;;6233997;28;20425;-71
2022/10/02 09:20:57;;;;;;;4.40;2.47;;;;;;;;;;6216572;28;20057;-72
2022/10/02 09:24:26;;;;;;;2.80;2.55;;;;;;;;;;6216188;28;20377;-74
2022/10/02 09:27:49;;;;;;;2.90;2.20;;;;;;;;;;6242420;28;20330;-77
2022/10/02 09:31:13;;;;;;;2.87;2.07;;;;;;;;;;6243166;28;20045;-73
2022/10/02 09:34:57;;;;;;;3.55;2.47;;;;;;;;;;6232735;28;20053;-74
2022/10/02 09:38:32;;;;;;;2.60;2.23;;;;;;;;;;6222456;28;20112;-69
2022/10/02 09:41:54;;;;;;;2.95;2.42;;;;;;;;;;6215629;28;20353;-72
2022/10/02 09:45:37;;;;;;;3.35;2.40;;;;;;;;;;6242818;28;20053;-71
2022/10/02 09:48:59;;;;;;;4.68;2.90;;;;;;;;;;6242556;28;20053;-73
2022/10/02 09:52:38;;;;;;;3.17;2.70;;;;;;;;;;6243461;28;20050;-73
2022/10/02 09:56:30;;;;;;;3.78;2.60;;;;;;;;;;6230845;28;20253;-75
2022/10/02 09:59:47;;;;;;;4.50;2.38;;;;;;;;;;6233314;28;20068;-70
2022/10/02 10:03:28;;;;;;;3.05;2.20;;;;;;;;;;6214496;28;20058;-70
2022/10/02 10:07:04;;;;;;;2.42;2.22;;;;;;;;;;6217869;28;20058;-72
2022/10/02 10:10:38;;;;;;;3.80;2.55;;;;;;;;;;6167951;28;20361;-69
2022/10/02 10:14:21;;;;;;;4.50;2.58;;;;;;;;;;6164273;28;20243;-76
2022/10/02 10:17:55;;;;;;;6.22;2.60;;;;;;;;;;6183484;28;20042;-73
2022/10/02 10:21:35;;;;;;;5.95;2.65;;;;;;;;;;6214296;28;20058;-73
2022/10/02 10:25:10;;;;;;;4.00;2.00;;;;;;;;;;6214847;28;20045;-77
2022/10/02 10:28:54;;;;;;;5.18;2.35;;;;;;;;;;6216350;28;20065;-73
2022/10/02 10:32:34;;;;;;;5.43;2.60;;;;;;;;;;6234503;28;20045;-74
2022/10/02 10:38:31;;;;;;;5.90;2.20;;;;;;;;;;6225520;28;20037;-75
2022/10/02 10:40:02;;;;;;;4.78;2.58;;;;;;;;;;6152462;28;20057;-76
2022/10/02 10:43:46;;;;;;;6.68;4.43;;;;;;;;;;6150180;28;20531;-72
2022/10/02 10:47:00;;;;;;;5.35;2.42;;;;;;;;;;6152926;28;20294;-78
2022/10/02 10:50:05;;;;;;;;;;;;;;;;;;6136754;28;20047;-72
2022/10/02 10:53:16;;;;;;;5.13;2.60;;;;;;;;;;6126903;29;19919;-73
2022/10/02 10:56:38;;;;;;;7.18;2.47;;;;;;;;;;6128911;29;20059;-76
2022/10/02 11:00:20;;;;;;;8.05;3.53;;;;;;;;;;6128747;29;20061;-72
2022/10/02 11:03:58;;;;;;;7.15;2.78;;;;;;;;;;6149709;28;20073;-74
2022/10/02 11:07:14;;;;;;;5.28;2.10;;;;;;;;;;6136313;28;20054;-73
2022/10/02 11:10:21;;;;;;;5.75;2.88;;;;;;;;;;6147852;28;20055;-68
2022/10/02 11:13:38;;;;;;;6.43;2.72;;;;;;;;;;6162674;28;20053;-73
2022/10/02 11:17:07;;;;;;;7.85;2.50;;;;;;;;;;6240058;28;20439;-79
2022/10/02 11:20:38;;;;;;;4.25;2.28;;;;;;;;;;6239233;28;20057;-75
2022/10/02 11:23:50;;;;;;;5.97;2.30;;;;;;;;;;6241715;28;20041;-75
2022/10/02 11:27:07;;;;;;;4.55;1.80;;;;;;;;;;6242161;28;20046;-76
2022/10/02 11:30:21;;;;;;;4.20;1.80;;;;;;;;;;6237805;28;20053;-74
2022/10/02 11:33:47;;;;;;;6.68;2.50;;;;;;;;;;6242219;28;20060;-74
2022/10/02 11:37:01;;;;;;;5.88;2.53;;;;;;;;;;6246103;28;20073;-71
2022/10/02 11:40:15;;;;;;;4.25;2.10;;;;;;;;;;6244803;28;20269;-75
2022/10/02 11:43:26;;;;;;;6.13;2.30;;;;;;;;;;6244849;28;20092;-74
2022/10/02 11:46:55;;;;;;;5.25;2.63;;;;;;;;;;6242932;28;20046;-74
2022/10/02 11:50:39;;;;;;;7.30;2.80;;;;;;;;;;6246278;28;20378;-80
2022/10/02 11:53:50;;;;;;;5.63;2.30;;;;;;;;;;6245289;28;20041;-78
2022/10/02 11:57:14;;;;;;;8.38;2.83;;;;;;;;;;6247717;28;20045;-73
2022/10/02 12:00:44;;;;;;;9.40;2.92;;;;;;;;;;6246816;28;20058;-74
2022/10/02 12:03:55;;;;;;;7.95;3.03;;;;;;;;;;6246553;28;20121;-74
2022/10/02 12:07:08;;;;;;;6.43;3.08;;;;;;;;;;6245183;28;20064;-74
2022/10/02 12:10:38;;;;;;;5.23;2.57;;;;;;;;;;6246591;28;20053;-74
2022/10/02 12:13:58;;;;;;;5.68;2.38;;;;;;;;;;6200983;28;20046;-74
2022/10/02 12:17:20;;;;;;;8.13;2.92;;;;;;;;;;6222024;28;20199;-72
2022/10/02 12:27:17;;;;;;;7.28;2.28;;;;;;;;;;6243108;28;20053;-73
2022/10/02 12:30:21;;;;;;;6.32;2.50;;;;;;;;;;6219914;28;20061;-70
2022/10/02 12:33:27;;;;;;;5.13;2.80;;;;;;;;;;6244311;28;20103;-74
2022/10/02 12:36:48;;;;;;;6.22;2.17;;;;;;;;;;6244069;28;20058;-74
2022/10/02 12:39:57;;;;;;;6.03;1.52;;;;;;;;;;6242081;28;20088;-69
2022/10/02 12:43:37;;;;;;;5.45;1.92;;;;;;;;;;6248980;28;20352;-76
2022/10/02 12:46:58;;;;;;;6.75;1.75;;;;;;;;;;6239588;28;20054;-75
2022/10/02 12:50:08;;;;;;;5.65;1.60;;;;;;;;;;6244125;28;20049;-75
2022/10/02 12:53:48;;;;;;;4.32;1.60;;;;;;;;;;6239715;28;20065;-75
2022/10/02 12:57:06;;;;;;;5.25;1.80;;;;;;;;;;6244116;28;20386;-73
2022/10/02 13:00:13;;;;;;;6.60;1.77;;;;;;;;;;6244926;28;20053;-74
2022/10/02 13:03:58;;;;;;;5.63;1.88;;;;;;;;;;6244500;28;20387;-75
2022/10/02 13:07:37;;;;;;;5.32;1.65;;;;;;;;;;6245400;28;20046;-74
2022/10/02 13:10:45;;;;;;;4.40;1.48;;;;;;;;;;6248986;28;20057;-72
2022/10/02 13:14:01;;;;;;;6.20;1.60;;;;;;;;;;6245270;28;20041;-74
2022/10/02 13:17:17;;;;;;;6.35;1.42;;;;;;;;;;6248701;28;20111;-73
2022/10/02 13:20:28;;;;;;;6.82;1.30;;;;;;;;;;6248317;28;20369;-72
2022/10/02 13:23:36;;;;;;;4.82;1.40;;;;;;;;;;6248289;28;20076;-73
2022/10/02 13:26:44;;;;;;;4.18;1.42;;;;;;;;;;6243538;28;20050;-75
2022/10/02 13:29:53;;;;;;;5.78;1.55;;;;;;;;;;6243772;28;20317;-72
2022/10/02 13:33:12;;;;;;;7.15;1.48;;;;;;;;;;6240558;28;20107;-73
2022/10/02 13:36:19;;;;;;;7.05;2.03;;;;;;;;;;6243690;28;20053;-73
2022/10/02 13:39:36;;;;;;;5.63;2.10;;;;;;;;;;6241883;28;20045;-71
2022/10/02 13:42:49;;;;;;;4.65;1.40;;;;;;;;;;6240964;28;20064;-71
2022/10/02 13:45:57;;;;;;;7.45;1.73;;;;;;;;;;6245487;28;20092;-73
2022/10/02 13:49:07;;;;;;;6.72;2.13;;;;;;;;;;6242317;28;20082;-72
2022/10/02 13:52:17;;;;;;;11.73;2.05;;;;;;;;;;6242012;28;20060;-76
2022/10/02 13:55:23;;;;;;;6.78;1.65;;;;;;;;;;6240491;28;20053;-77
2022/10/02 13:58:41;;;;;;;5.80;2.00;;;;;;;;;;6244132;28;20111;-76
2022/10/02 14:01:54;;;;;;;5.72;2.05;;;;;;;;;;6243821;28;20360;-70
2022/10/02 14:04:59;;;;;;;7.88;2.40;;;;;;;;;;6244870;28;20281;-70
2022/10/02 14:08:14;;;;;;;9.82;2.35;;;;;;;;;;6237911;28;20103;-73
2022/10/02 14:11:24;;;;;;;8.60;2.08;;;;;;;;;;6242042;28;20041;-69
2022/10/02 14:14:37;;;;;;;4.18;1.90;;;;;;;;;;6239075;28;20249;-70
2022/10/02 14:17:52;;;;;;;5.97;1.80;;;;;;;;;;6240217;28;20053;-75
2022/10/02 14:21:01;;;;;;;7.60;1.67;;;;;;;;;;6240425;28;20118;-72
2022/10/02 14:24:21;;;;;;;5.22;1.60;;;;;;;;;;6245393;28;20108;-74
2022/10/02 14:28:08;;;;;;;7.43;1.77;;;;;;;;;;6243536;28;20056;-71
2022/10/02 14:31:36;;;;;;;5.90;2.08;;;;;;;;;;6223511;28;20073;-73
2022/10/02 14:34:50;;;;;;;6.32;1.70;;;;;;;;;;6236970;28;20064;-73
2022/10/02 14:38:15;;;;;;;5.13;1.77;;;;;;;;;;6248503;28;20057;-72
2022/10/02 14:41:30;;;;;;;4.72;1.95;;;;;;;;;;6247748;28;20050;-70
2022/10/02 14:44:45;;;;;;;7.68;2.15;;;;;;;;;;6247675;28;20053;-71
2022/10/02 14:48:01;;;;;;;8.27;1.88;;;;;;;;;;6247249;28;20218;-72
2022/10/02 14:51:17;;;;;;;6.15;1.67;;;;;;;;;;6247847;28;20057;-71
2022/10/02 14:54:28;;;;;;;8.40;2.90;;;;;;;;;;6243955;28;20058;-75
2022/10/02 14:57:40;;;;;;;5.45;2.17;;;;;;;;;;6245336;28;20064;-75
2022/10/02 15:00:49;;;;;;;7.05;1.50;;;;;;;;;;6240847;28;20068;-77
2022/10/02 15:04:04;;;;;;;5.50;1.50;;;;;;;;;;6244061;28;20053;-74
2022/10/02 15:07:08;;;;;;;5.13;1.50;;;;;;;;;;6244750;28;20103;-74
2022/10/02 15:10:15;;;;;;;6.22;2.28;;;;;;;;;;6240288;28;20203;-74
2022/10/02 15:13:25;;;;;;;5.50;1.88;;;;;;;;;;6222474;28;20068;-73
2022/10/02 15:19:58;;;;;;;8.68;2.05;;;;;;;;;;6233744;28;20057;-73
2022/10/02 15:23:02;;;;;;;5.32;1.75;;;;;;;;;;6241522;28;20061;-76
2022/10/02 15:26:13;;;;;;;8.05;2.03;;;;;;;;;;6243578;28;20053;-75
2022/10/02 15:29:22;;;;;;;3.75;1.77;;;;;;;;;;6236727;28;20108;-72
2022/10/02 15:32:39;;;;;;;5.20;1.80;;;;;;;;;;6236353;28;20352;-74
2022/10/02 15:36:05;;;;;;;9.25;1.70;;;;;;;;;;6239294;28;20053;-73
2022/10/02 15:39:31;;;;;;;7.95;1.90;;;;;;;;;;6238606;28;20137;-76
2022/10/02 15:42:46;;;;;;;4.60;1.92;;;;;;;;;;6239013;28;20124;-73
2022/10/02 15:45:59;;;;;;;7.65;1.90;;;;;;;;;;6244199;28;20180;-75
2022/10/02 15:49:05;;;;;;;5.53;1.98;;;;;;;;;;6238914;28;20060;-70
2022/10/02 15:52:13;;;;;;;6.10;1.70;;;;;;;;;;6236578;28;20107;-69
2022/10/02 15:55:20;;;;;;;4.50;1.83;;;;;;;;;;6239515;28;20247;-69
2022/10/02 15:58:34;;;;;;;6.85;2.10;;;;;;;;;;6242518;28;20276;-70
2022/10/02 16:01:44;;;;;;;10.32;2.60;;;;;;;;;;6243603;28;20156;-68
2022/10/02 16:04:59;;;;;;;9.95;2.78;;;;;;;;;;6246769;28;20342;-73
2022/10/02 16:08:12;;;;;;;7.50;2.30;;;;;;;;;;6240727;28;20041;-68
2022/10/02 16:11:32;;;;;;;;;;;;;;;;;;6246134;28;20060;-70
2022/10/02 16:14:45;;;;;;;6.45;1.85;;;;;;;;;;6243965;28;20180;-72
2022/10/02 16:18:08;;;;;;;4.70;2.20;;;;;;;;;;6245998;28;20124;-71
2022/10/02 16:21:21;;;;;;;;;;;;;;;;;;6236167;28;20069;-68
2022/10/02 16:24:51;;;;;;;8.37;1.73;;;;;;;;;;6246770;28;19921;-71
2022/10/02 16:27:59;;;;;;;6.80;1.85;;;;;;;;;;6242785;28;20064;-70
2022/10/02 16:31:12;;;;;;;7.22;1.83;;;;;;;;;;6251845;28;20282;-71
2022/10/02 16:34:23;;;;;;;5.65;1.65;;;;;;;;;;6245625;28;20294;-69
2022/10/02 16:37:28;;;;;;;9.98;2.05;;;;;;;;;;6248234;28;20053;-74
2022/10/02 16:40:37;;;;;;;7.88;1.92;;;;;;;;;;6250849;28;20059;-73
2022/10/02 16:43:50;;;;;;;7.10;1.77;;;;;;;;;;6247495;28;20287;-74
2022/10/02 16:46:54;;;;;;;5.18;1.60;;;;;;;;;;6245588;28;20152;-71
2022/10/02 16:49:59;;;;;;;6.10;1.85;;;;;;;;;;6249262;28;20065;-70
2022/10/02 16:53:05;;;;;;;7.43;2.20;;;;;;;;;;6247962;28;20061;-70
2022/10/02 16:56:11;;;;;;;8.10;1.42;;;;;;;;;;6247350;28;20284;-68
2022/10/02 16:59:16;;;;;;;5.47;1.80;;;;;;;;;;6243250;28;20068;-68
2022/10/02 17:02:22;;;;;;;8.43;3.10;;;;;;;;;;6245825;28;20894;-68
2022/10/02 17:05:28;;;;;;;7.47;2.35;;;;;;;;;;6246381;28;20060;-68
2022/10/02 17:08:34;;;;;;;6.20;1.92;;;;;;;;;;6246852;28;20064;-71
2022/10/02 17:11:46;;;;;;;6.90;2.00;;;;;;;;;;6250152;28;20337;-71
2022/10/02 17:14:54;;;;;;;13.80;3.83;;;;;;;;;;6243338;28;20062;-70
2022/10/02 17:18:17;;;;;;;11.60;2.50;;;;;;;;;;6247108;28;20061;-72
2022/10/02 17:21:21;;;;;;;5.45;2.30;;;;;;;;;;6248662;28;20321;-70
2022/10/02 17:24:36;;;;;;;8.82;3.20;;;;;;;;;;6244303;28;20242;-70
2022/10/02 17:27:46;;;;;;;7.38;2.92;;;;;;;;;;6247525;28;20359;-70
2022/10/02 17:31:13;;;;;;;8.10;3.25;;;;;;;;;;6244120;28;20333;-72
2022/10/02 17:34:20;;;;;;;11.13;2.80;;;;;;;;;;6246218;28;20069;-70
2022/10/02 17:37:44;;;;;;;10.23;3.13;;;;;;;;;;6248587;28;20215;-70
2022/10/02 17:40:53;;;;;;;10.18;3.83;;;;;;;;;;6248375;28;20236;-72
2022/10/02 17:44:06;;;;;;;7.30;3.20;;;;;;;;;;6248833;28;20112;-70
2022/10/02 17:47:24;;;;;;;7.65;2.92;;;;;;;;;;6249792;28;20058;-71
2022/10/02 17:50:46;;;;;;;10.23;3.42;;;;;;;;;;6245159;28;20045;-71
2022/10/02 17:57:23;;;;;;;11.82;3.63;;;;;;;;;;6248233;28;20191;-72
2022/10/02 18:00:27;;;;;;;9.40;3.92;;;;;;;;;;6246173;28;20061;-72
2022/10/02 18:03:42;;;;;;;6.72;2.90;;;;;;;;;;6246129;28;20052;-70
2022/10/02 18:06:53;;;;;;;6.13;2.20;;;;;;;;;;6248143;28;20058;-70
2022/10/02 18:10:03;;;;;;;6.20;2.10;;;;;;;;;;6248925;28;20049;-71
2022/10/02 18:13:23;;;;;;;7.00;2.40;;;;;;;;;;6249225;28;20061;-70
2022/10/02 18:16:33;;;;;;;7.68;2.85;;;;;;;;;;6242347;28;20067;-71
2022/10/02 18:19:49;;;;;;;10.55;2.20;;;;;;;;;;6244545;28;20668;-71
2022/10/02 18:23:02;;;;;;;6.97;2.15;;;;;;;;;;6249750;28;20061;-73
2022/10/02 18:26:15;;;;;;;6.50;2.80;;;;;;;;;;6249009;28;21335;-74
2022/10/02 18:29:41;;;;;;;8.80;2.40;;;;;;;;;;6244883;28;20060;-73
2022/10/02 18:33:23;;;;;;;10.10;2.50;;;;;;;;;;6246755;28;20537;-73
2022/10/02 18:36:36;;;;;;;6.50;2.15;;;;;;;;;;6245581;28;20056;-74
2022/10/02 18:39:39;;;;;;;;;;;;;;;;;;6247445;28;20045;-74
2022/10/02 18:42:52;;;;;;;7.35;1.75;;;;;;;;;;6249605;28;19925;-71
2022/10/02 18:46:03;;;;;;;6.65;1.67;;;;;;;;;;6245041;28;20322;-72
2022/10/02 18:49:28;;;;;;;6.80;2.65;;;;;;;;;;6249457;28;20069;-73
2022/10/02 18:52:58;;;;;;;5.20;1.98;;;;;;;;;;6245127;28;20053;-71
2022/10/02 18:56:06;;;;;;;11.07;3.42;;;;;;;;;;6246189;28;20104;-71
2022/10/02 18:59:18;;;;;;;7.05;2.13;;;;;;;;;;6246561;28;20061;-72
2022/10/02 19:02:33;;;;;;;6.43;2.10;;;;;;;;;;6243065;28;20053;-72
2022/10/02 19:05:39;;;;;;;7.55;1.80;;;;;;;;;;6249595;28;20343;-72
2022/10/02 19:09:02;;;;;;;4.72;1.77;;;;;;;;;;6249901;28;20053;-72
2022/10/02 19:12:14;;;;;;;7.95;2.13;;;;;;;;;;6246458;28;20053;-72
2022/10/02 19:15:21;;;;;;;10.05;2.28;;;;;;;;;;6245121;28;20053;-73
2022/10/02 19:18:25;;;;;;;7.07;1.83;;;;;;;;;;6246954;28;20045;-69
2022/10/02 19:21:28;;;;;;;12.27;2.40;;;;;;;;;;6247272;28;20108;-72
2022/10/02 19:24:31;;;;;;;5.93;2.08;;;;;;;;;;6245266;28;20246;-68
2022/10/02 19:27:34;;;;;;;8.48;2.20;;;;;;;;;;6246864;28;20066;-71
2022/10/02 19:30:36;;;;;;;5.88;2.00;;;;;;;;;;6244873;28;20232;-69
2022/10/02 19:33:42;;;;;;;8.02;2.35;;;;;;;;;;6244101;28;20045;-72
2022/10/02 19:36:49;;;;;;;9.20;2.33;;;;;;;;;;6245243;28;20100;-70
2022/10/02 19:39:53;;;;;;;7.65;2.28;;;;;;;;;;6245576;28;20111;-69